Accueil
METAR-TAF:

METAR-TAF

Aéroports :

Figari, France

Aéroport de Figari Sud Corse

latitude: 41-30N, longitude: 009-06E, altitude: 26 m

Observation

Le bulletin a été fait il y a 18 minutes, à 21:30 UTC
Vent calme
Température 6°C
Humidité 87%
Pression 1019 hPa
Visibilité 10 km ou plus
pas de nuages en-dessous de 1500 mètres et pas de cumulonimbus.

METAR: LFKF 232130Z AUTO 00000KT CAVOK 06/04 Q1019 NOSIG

Heure: 23:48 (21:48 UTC)

Prévision

Le bulletin a été fait il y a 7 heures et 48 minutes, à 14:00 UTC
Prévision valable du 23 à 15 UTC au 24 à 15 UTC
Vent 15 kt de ouest/sud-ouest
Visibilité 10 km ou plus
Quelques nuages à une hauteur de 3000 ft
Evoluant progressivement
du 23 à 18 UTC au 23 à 20 UTC
Vent 3 kt de direction variable
Evoluant progressivement
du 24 à 08 UTC au 24 à 10 UTC
Vent 10 kt de est

TAF: LFKF 231400Z 2315/2415 24015KT 9999 FEW030 BECMG 2318/2320 VRB03KT BECMG 2408/2410 08010KT

Observations et prévisions météorologiques de plus de 4000 aéroports (messages METAR et TAF).

Les stations disponibles sont représentées par des disques jaunes et rouges sur la carte.

Passer la souris dessus pour voir le nom de la station.

Cliquer dessus pour voir les observations et prévisions météorologiques.

Pour changer de carte: cliquez sur les boutons verts avec une croix noire pour zoomer, sur le bouton vert avec un tiret pour effectuer un zoom arrière, ou sur les flèches vertes pour les cartes adjacentes.


METAR-TAF: